sensor_id;sensor_type;location;lat;lon;timestamp;temperature;humidity
40538;DHT22;27925;41.874;12.526;2023-11-22T00:00:09;16.10;86.50
40538;DHT22;27925;41.874;12.526;2023-11-22T00:02:39;16.10;86.60
40538;DHT22;27925;41.874;12.526;2023-11-22T00:05:05;16.10;86.50
40538;DHT22;27925;41.874;12.526;2023-11-22T00:07:33;16.10;86.60
40538;DHT22;27925;41.874;12.526;2023-11-22T00:09:59;16.10;86.30
40538;DHT22;27925;41.874;12.526;2023-11-22T00:12:27;16.10;86.50
40538;DHT22;27925;41.874;12.526;2023-11-22T00:14:54;16.10;86.30
40538;DHT22;27925;41.874;12.526;2023-11-22T00:17:19;16.00;86.30
40538;DHT22;27925;41.874;12.526;2023-11-22T00:19:45;16.00;86.50
40538;DHT22;27925;41.874;12.526;2023-11-22T00:22:12;16.00;86.40
40538;DHT22;27925;41.874;12.526;2023-11-22T00:24:40;16.00;86.30
40538;DHT22;27925;41.874;12.526;2023-11-22T00:27:06;16.00;86.40
40538;DHT22;27925;41.874;12.526;2023-11-22T00:29:32;16.00;86.50
40538;DHT22;27925;41.874;12.526;2023-11-22T00:31:58;16.00;86.70
40538;DHT22;27925;41.874;12.526;2023-11-22T00:34:24;16.00;87.00
40538;DHT22;27925;41.874;12.526;2023-11-22T00:36:50;16.00;87.00
40538;DHT22;27925;41.874;12.526;2023-11-22T00:39:16;15.90;87.30
40538;DHT22;27925;41.874;12.526;2023-11-22T00:41:43;15.90;87.40
40538;DHT22;27925;41.874;12.526;2023-11-22T00:44:10;15.90;87.60
40538;DHT22;27925;41.874;12.526;2023-11-22T00:46:36;15.90;87.70
40538;DHT22;27925;41.874;12.526;2023-11-22T00:49:03;15.80;87.80
40538;DHT22;27925;41.874;12.526;2023-11-22T00:51:30;15.80;88.10
40538;DHT22;27925;41.874;12.526;2023-11-22T00:53:57;15.80;88.10
40538;DHT22;27925;41.874;12.526;2023-11-22T00:56:23;15.80;88.20
40538;DHT22;27925;41.874;12.526;2023-11-22T00:58:49;15.70;88.30
40538;DHT22;27925;41.874;12.526;2023-11-22T01:01:16;15.70;88.50
40538;DHT22;27925;41.874;12.526;2023-11-22T01:03:43;15.70;88.70
40538;DHT22;27925;41.874;12.526;2023-11-22T01:06:09;15.70;88.70
40538;DHT22;27925;41.874;12.526;2023-11-22T01:08:35;15.70;88.90
40538;DHT22;27925;41.874;12.526;2023-11-22T01:11:02;15.70;88.80
40538;DHT22;27925;41.874;12.526;2023-11-22T01:13:29;15.70;89.00
40538;DHT22;27925;41.874;12.526;2023-11-22T01:15:55;15.60;88.90
40538;DHT22;27925;41.874;12.526;2023-11-22T01:18:21;15.70;88.80
40538;DHT22;27925;41.874;12.526;2023-11-22T01:20:46;15.60;88.70
40538;DHT22;27925;41.874;12.526;2023-11-22T01:23:12;15.60;88.50
40538;DHT22;27925;41.874;12.526;2023-11-22T01:25:38;15.50;88.50
40538;DHT22;27925;41.874;12.526;2023-11-22T01:28:03;15.50;88.60
40538;DHT22;27925;41.874;12.526;2023-11-22T01:30:29;15.50;88.70
40538;DHT22;27925;41.874;12.526;2023-11-22T01:32:55;15.50;88.50
40538;DHT22;27925;41.874;12.526;2023-11-22T01:35:21;15.50;88.40
40538;DHT22;27925;41.874;12.526;2023-11-22T01:37:47;15.50;88.30
40538;DHT22;27925;41.874;12.526;2023-11-22T01:40:13;15.50;88.20
40538;DHT22;27925;41.874;12.526;2023-11-22T01:42:39;15.50;88.10
40538;DHT22;27925;41.874;12.526;2023-11-22T01:45:08;15.50;88.00
40538;DHT22;27925;41.874;12.526;2023-11-22T01:47:35;15.50;88.10
40538;DHT22;27925;41.874;12.526;2023-11-22T01:50:04;15.40;88.10
40538;DHT22;27925;41.874;12.526;2023-11-22T01:52:31;15.40;88.40
40538;DHT22;27925;41.874;12.526;2023-11-22T01:54:57;15.40;88.40
40538;DHT22;27925;41.874;12.526;2023-11-22T01:57:23;15.40;88.50
40538;DHT22;27925;41.874;12.526;2023-11-22T01:59:49;15.40;88.40
40538;DHT22;27925;41.874;12.526;2023-11-22T02:02:14;15.40;88.50
40538;DHT22;27925;41.874;12.526;2023-11-22T02:04:40;15.40;88.50
40538;DHT22;27925;41.874;12.526;2023-11-22T02:07:06;15.40;88.50
40538;DHT22;27925;41.874;12.526;2023-11-22T02:09:31;15.30;88.40
40538;DHT22;27925;41.874;12.526;2023-11-22T02:11:58;15.30;88.60
40538;DHT22;27925;41.874;12.526;2023-11-22T02:14:23;15.20;88.70
40538;DHT22;27925;41.874;12.526;2023-11-22T02:16:49;15.20;88.90
40538;DHT22;27925;41.874;12.526;2023-11-22T02:19:17;15.10;89.20
40538;DHT22;27925;41.874;12.526;2023-11-22T02:21:43;15.10;89.30
40538;DHT22;27925;41.874;12.526;2023-11-22T02:24:10;15.10;89.50
40538;DHT22;27925;41.874;12.526;2023-11-22T02:26:36;15.10;89.60
40538;DHT22;27925;41.874;12.526;2023-11-22T02:29:02;15.10;89.70
40538;DHT22;27925;41.874;12.526;2023-11-22T02:31:30;15.10;89.70
40538;DHT22;27925;41.874;12.526;2023-11-22T02:33:56;15.20;89.80
40538;DHT22;27925;41.874;12.526;2023-11-22T02:36:24;15.20;89.80
40538;DHT22;27925;41.874;12.526;2023-11-22T02:38:50;15.20;89.80
40538;DHT22;27925;41.874;12.526;2023-11-22T02:41:16;15.20;89.90
40538;DHT22;27925;41.874;12.526;2023-11-22T02:43:42;15.20;89.80
40538;DHT22;27925;41.874;12.526;2023-11-22T02:46:10;15.10;89.60
40538;DHT22;27925;41.874;12.526;2023-11-22T02:48:36;15.10;89.70
40538;DHT22;27925;41.874;12.526;2023-11-22T02:51:03;15.10;89.70
40538;DHT22;27925;41.874;12.526;2023-11-22T02:53:28;15.10;89.90
40538;DHT22;27925;41.874;12.526;2023-11-22T02:55:58;15.10;89.90
40538;DHT22;27925;41.874;12.526;2023-11-22T02:58:27;15.00;90.00
40538;DHT22;27925;41.874;12.526;2023-11-22T03:00:52;15.00;90.00
40538;DHT22;27925;41.874;12.526;2023-11-22T03:03:20;14.90;90.00
40538;DHT22;27925;41.874;12.526;2023-11-22T03:05:45;14.80;90.10
40538;DHT22;27925;41.874;12.526;2023-11-22T03:08:11;14.80;90.10
40538;DHT22;27925;41.874;12.526;2023-11-22T03:10:38;14.80;90.10
40538;DHT22;27925;41.874;12.526;2023-11-22T03:13:04;14.80;90.10
40538;DHT22;27925;41.874;12.526;2023-11-22T03:15:30;14.70;90.20
40538;DHT22;27925;41.874;12.526;2023-11-22T03:17:57;14.60;90.20
40538;DHT22;27925;41.874;12.526;2023-11-22T03:20:24;14.60;90.20
40538;DHT22;27925;41.874;12.526;2023-11-22T03:22:50;14.60;90.30
40538;DHT22;27925;41.874;12.526;2023-11-22T03:25:16;14.60;90.40
40538;DHT22;27925;41.874;12.526;2023-11-22T03:27:42;14.60;90.40
40538;DHT22;27925;41.874;12.526;2023-11-22T03:30:08;14.50;90.40
40538;DHT22;27925;41.874;12.526;2023-11-22T03:32:38;14.40;90.40
40538;DHT22;27925;41.874;12.526;2023-11-22T03:35:05;14.40;90.50
40538;DHT22;27925;41.874;12.526;2023-11-22T03:37:32;14.30;90.40
40538;DHT22;27925;41.874;12.526;2023-11-22T03:39:58;14.30;90.50
40538;DHT22;27925;41.874;12.526;2023-11-22T03:42:24;14.20;90.50
40538;DHT22;27925;41.874;12.526;2023-11-22T03:44:49;14.20;90.50
40538;DHT22;27925;41.874;12.526;2023-11-22T03:47:16;14.20;90.50
40538;DHT22;27925;41.874;12.526;2023-11-22T03:49:41;14.10;90.50
40538;DHT22;27925;41.874;12.526;2023-11-22T03:52:10;14.10;90.50
40538;DHT22;27925;41.874;12.526;2023-11-22T03:54:36;14.10;90.60
40538;DHT22;27925;41.874;12.526;2023-11-22T03:57:03;14.10;90.60
40538;DHT22;27925;41.874;12.526;2023-11-22T03:59:29;14.10;90.60
40538;DHT22;27925;41.874;12.526;2023-11-22T04:01:55;14.10;90.70
40538;DHT22;27925;41.874;12.526;2023-11-22T04:04:21;14.10;90.80
40538;DHT22;27925;41.874;12.526;2023-11-22T04:06:47;14.00;90.70
40538;DHT22;27925;41.874;12.526;2023-11-22T04:09:12;14.00;90.70
40538;DHT22;27925;41.874;12.526;2023-11-22T04:11:39;14.00;90.80
40538;DHT22;27925;41.874;12.526;2023-11-22T04:14:05;14.00;90.90
40538;DHT22;27925;41.874;12.526;2023-11-22T04:16:31;14.00;90.90
40538;DHT22;27925;41.874;12.526;2023-11-22T04:18:57;14.00;90.90
40538;DHT22;27925;41.874;12.526;2023-11-22T04:21:23;13.90;90.90
40538;DHT22;27925;41.874;12.526;2023-11-22T04:23:49;13.90;90.90
40538;DHT22;27925;41.874;12.526;2023-11-22T04:26:15;13.90;91.00
40538;DHT22;27925;41.874;12.526;2023-11-22T04:28:41;13.90;91.10
40538;DHT22;27925;41.874;12.526;2023-11-22T04:31:07;13.90;91.10
40538;DHT22;27925;41.874;12.526;2023-11-22T04:33:34;13.90;91.20
40538;DHT22;27925;41.874;12.526;2023-11-22T04:36:00;13.90;91.20
40538;DHT22;27925;41.874;12.526;2023-11-22T04:38:26;13.90;91.20
40538;DHT22;27925;41.874;12.526;2023-11-22T04:40:52;13.80;91.30
40538;DHT22;27925;41.874;12.526;2023-11-22T04:43:18;13.80;91.30
40538;DHT22;27925;41.874;12.526;2023-11-22T04:45:43;13.80;91.30
40538;DHT22;27925;41.874;12.526;2023-11-22T04:48:09;13.80;91.40
40538;DHT22;27925;41.874;12.526;2023-11-22T04:50:35;13.90;91.50
40538;DHT22;27925;41.874;12.526;2023-11-22T04:53:01;13.80;91.40
40538;DHT22;27925;41.874;12.526;2023-11-22T04:55:27;13.80;91.40
40538;DHT22;27925;41.874;12.526;2023-11-22T04:57:54;13.80;91.50
40538;DHT22;27925;41.874;12.526;2023-11-22T05:00:21;13.80;91.60
40538;DHT22;27925;41.874;12.526;2023-11-22T05:02:50;13.70;91.60
40538;DHT22;27925;41.874;12.526;2023-11-22T05:05:15;13.70;91.70
40538;DHT22;27925;41.874;12.526;2023-11-22T05:07:42;13.70;91.70
40538;DHT22;27925;41.874;12.526;2023-11-22T05:10:09;13.70;91.70
40538;DHT22;27925;41.874;12.526;2023-11-22T05:12:34;13.60;91.70
40538;DHT22;27925;41.874;12.526;2023-11-22T05:15:03;13.60;91.70
40538;DHT22;27925;41.874;12.526;2023-11-22T05:17:29;13.50;91.70
40538;DHT22;27925;41.874;12.526;2023-11-22T05:19:55;13.50;91.70
40538;DHT22;27925;41.874;12.526;2023-11-22T05:22:21;13.50;91.80
40538;DHT22;27925;41.874;12.526;2023-11-22T05:24:48;13.40;91.70
40538;DHT22;27925;41.874;12.526;2023-11-22T05:27:14;13.40;91.60
40538;DHT22;27925;41.874;12.526;2023-11-22T05:29:40;13.40;91.50
40538;DHT22;27925;41.874;12.526;2023-11-22T05:32:06;13.30;91.50
40538;DHT22;27925;41.874;12.526;2023-11-22T05:34:32;13.30;91.30
40538;DHT22;27925;41.874;12.526;2023-11-22T05:36:58;13.20;91.30
40538;DHT22;27925;41.874;12.526;2023-11-22T05:39:24;13.20;91.20
40538;DHT22;27925;41.874;12.526;2023-11-22T05:41:50;13.20;91.10
40538;DHT22;27925;41.874;12.526;2023-11-22T05:44:16;13.20;91.10
40538;DHT22;27925;41.874;12.526;2023-11-22T05:46:42;13.20;91.10
40538;DHT22;27925;41.874;12.526;2023-11-22T05:49:08;13.20;90.90
40538;DHT22;27925;41.874;12.526;2023-11-22T05:51:34;13.20;90.80
40538;DHT22;27925;41.874;12.526;2023-11-22T05:53:59;13.10;90.60
40538;DHT22;27925;41.874;12.526;2023-11-22T05:56:26;13.10;90.60
40538;DHT22;27925;41.874;12.526;2023-11-22T05:58:51;13.10;90.40
40538;DHT22;27925;41.874;12.526;2023-11-22T06:01:17;13.10;90.30
40538;DHT22;27925;41.874;12.526;2023-11-22T06:03:43;13.00;90.20
40538;DHT22;27925;41.874;12.526;2023-11-22T06:06:08;13.10;90.30
40538;DHT22;27925;41.874;12.526;2023-11-22T06:08:34;13.10;90.20
40538;DHT22;27925;41.874;12.526;2023-11-22T06:11:00;13.00;89.70
40538;DHT22;27925;41.874;12.526;2023-11-22T06:13:26;13.00;89.60
40538;DHT22;27925;41.874;12.526;2023-11-22T06:15:52;13.00;89.40
40538;DHT22;27925;41.874;12.526;2023-11-22T06:18:18;13.00;89.20
40538;DHT22;27925;41.874;12.526;2023-11-22T06:20:45;13.00;88.90
40538;DHT22;27925;41.874;12.526;2023-11-22T06:23:11;13.00;88.60
40538;DHT22;27925;41.874;12.526;2023-11-22T06:25:36;13.00;88.60
40538;DHT22;27925;41.874;12.526;2023-11-22T06:28:02;13.00;88.40
40538;DHT22;27925;41.874;12.526;2023-11-22T06:30:28;13.10;88.40
40538;DHT22;27925;41.874;12.526;2023-11-22T06:32:56;13.10;88.10
40538;DHT22;27925;41.874;12.526;2023-11-22T06:35:21;13.10;87.90
40538;DHT22;27925;41.874;12.526;2023-11-22T06:37:47;13.10;87.90
40538;DHT22;27925;41.874;12.526;2023-11-22T06:40:13;13.30;87.80
40538;DHT22;27925;41.874;12.526;2023-11-22T06:42:40;13.50;87.20
40538;DHT22;27925;41.874;12.526;2023-11-22T06:45:07;13.50;86.90
40538;DHT22;27925;41.874;12.526;2023-11-22T06:47:36;13.50;87.00
40538;DHT22;27925;41.874;12.526;2023-11-22T06:50:02;13.90;86.40
40538;DHT22;27925;41.874;12.526;2023-11-22T06:52:38;14.70;85.00
40538;DHT22;27925;41.874;12.526;2023-11-22T06:55:05;15.60;83.00
40538;DHT22;27925;41.874;12.526;2023-11-22T06:57:33;16.30;81.40
40538;DHT22;27925;41.874;12.526;2023-11-22T06:59:59;16.70;79.10
40538;DHT22;27925;41.874;12.526;2023-11-22T07:02:26;17.00;78.30
40538;DHT22;27925;41.874;12.526;2023-11-22T07:04:52;17.40;77.80
40538;DHT22;27925;41.874;12.526;2023-11-22T07:07:18;17.80;76.30
40538;DHT22;27925;41.874;12.526;2023-11-22T07:09:45;18.30;75.40
40538;DHT22;27925;41.874;12.526;2023-11-22T07:12:11;18.50;74.60
40538;DHT22;27925;41.874;12.526;2023-11-22T07:14:38;18.70;73.90
40538;DHT22;27925;41.874;12.526;2023-11-22T07:17:04;19.10;73.20
40538;DHT22;27925;41.874;12.526;2023-11-22T07:19:32;19.50;72.10
40538;DHT22;27925;41.874;12.526;2023-11-22T07:22:04;19.50;70.80
40538;DHT22;27925;41.874;12.526;2023-11-22T07:24:30;18.40;72.00
40538;DHT22;27925;41.874;12.526;2023-11-22T07:26:59;17.40;73.70
40538;DHT22;27925;41.874;12.526;2023-11-22T07:29:26;16.80;75.80
40538;DHT22;27925;41.874;12.526;2023-11-22T07:31:54;16.30;77.00
40538;DHT22;27925;41.874;12.526;2023-11-22T07:34:21;16.00;77.50
40538;DHT22;27925;41.874;12.526;2023-11-22T07:36:47;15.80;77.90
40538;DHT22;27925;41.874;12.526;2023-11-22T07:39:13;15.60;78.70
40538;DHT22;27925;41.874;12.526;2023-11-22T07:41:39;15.40;78.40
40538;DHT22;27925;41.874;12.526;2023-11-22T07:44:04;15.30;78.70
40538;DHT22;27925;41.874;12.526;2023-11-22T07:46:30;15.20;78.80
40538;DHT22;27925;41.874;12.526;2023-11-22T07:48:56;15.10;78.90
40538;DHT22;27925;41.874;12.526;2023-11-22T07:51:23;15.00;79.00
40538;DHT22;27925;41.874;12.526;2023-11-22T07:53:49;15.00;79.20
40538;DHT22;27925;41.874;12.526;2023-11-22T07:56:15;15.00;79.30
40538;DHT22;27925;41.874;12.526;2023-11-22T07:58:41;15.10;79.10
40538;DHT22;27925;41.874;12.526;2023-11-22T08:01:06;15.10;79.10
40538;DHT22;27925;41.874;12.526;2023-11-22T08:03:39;15.10;79.00
40538;DHT22;27925;41.874;12.526;2023-11-22T08:06:09;15.10;78.90
40538;DHT22;27925;41.874;12.526;2023-11-22T08:08:36;15.10;79.00
40538;DHT22;27925;41.874;12.526;2023-11-22T08:11:05;15.10;79.10
40538;DHT22;27925;41.874;12.526;2023-11-22T08:13:40;15.10;79.10
40538;DHT22;27925;41.874;12.526;2023-11-22T08:16:08;15.10;79.10
40538;DHT22;27925;41.874;12.526;2023-11-22T08:18:34;15.00;79.00
40538;DHT22;27925;41.874;12.526;2023-11-22T08:21:00;15.00;79.10
40538;DHT22;27925;41.874;12.526;2023-11-22T08:23:26;14.90;79.20
40538;DHT22;27925;41.874;12.526;2023-11-22T08:25:56;14.90;79.50
40538;DHT22;27925;41.874;12.526;2023-11-22T08:28:22;14.90;79.40
40538;DHT22;27925;41.874;12.526;2023-11-22T08:30:48;14.80;79.50
40538;DHT22;27925;41.874;12.526;2023-11-22T08:33:14;14.90;79.80
40538;DHT22;27925;41.874;12.526;2023-11-22T08:35:40;14.90;79.80
40538;DHT22;27925;41.874;12.526;2023-11-22T08:38:06;14.90;80.00
40538;DHT22;27925;41.874;12.526;2023-11-22T08:40:34;14.90;79.90
40538;DHT22;27925;41.874;12.526;2023-11-22T08:43:03;14.90;80.00
40538;DHT22;27925;41.874;12.526;2023-11-22T08:45:30;14.90;79.90
40538;DHT22;27925;41.874;12.526;2023-11-22T08:47:57;15.00;80.10
40538;DHT22;27925;41.874;12.526;2023-11-22T08:50:23;15.00;80.00
40538;DHT22;27925;41.874;12.526;2023-11-22T08:52:49;15.00;80.10
40538;DHT22;27925;41.874;12.526;2023-11-22T08:55:19;15.00;80.00
40538;DHT22;27925;41.874;12.526;2023-11-22T08:57:48;15.10;80.30
40538;DHT22;27925;41.874;12.526;2023-11-22T09:00:16;15.10;80.10
40538;DHT22;27925;41.874;12.526;2023-11-22T09:02:50;15.20;80.00
40538;DHT22;27925;41.874;12.526;2023-11-22T09:05:16;15.30;79.80
40538;DHT22;27925;41.874;12.526;2023-11-22T09:07:45;15.40;79.70
40538;DHT22;27925;41.874;12.526;2023-11-22T09:10:12;15.40;79.40
40538;DHT22;27925;41.874;12.526;2023-11-22T09:12:41;15.40;79.20
40538;DHT22;27925;41.874;12.526;2023-11-22T09:15:13;15.50;79.30
40538;DHT22;27925;41.874;12.526;2023-11-22T09:17:42;15.50;79.10
40538;DHT22;27925;41.874;12.526;2023-11-22T09:20:18;15.50;79.30
40538;DHT22;27925;41.874;12.526;2023-11-22T09:22:51;15.50;78.80
40538;DHT22;27925;41.874;12.526;2023-11-22T09:25:18;15.40;78.70
40538;DHT22;27925;41.874;12.526;2023-11-22T09:27:48;15.40;78.70
40538;DHT22;27925;41.874;12.526;2023-11-22T09:30:15;15.40;79.00
40538;DHT22;27925;41.874;12.526;2023-11-22T09:33:01;15.50;78.90
40538;DHT22;27925;41.874;12.526;2023-11-22T09:35:27;15.50;78.80
40538;DHT22;27925;41.874;12.526;2023-11-22T09:38:04;15.60;78.90
40538;DHT22;27925;41.874;12.526;2023-11-22T09:40:30;15.70;78.50
40538;DHT22;27925;41.874;12.526;2023-11-22T09:42:59;15.80;78.30
40538;DHT22;27925;41.874;12.526;2023-11-22T09:45:27;15.80;78.10
40538;DHT22;27925;41.874;12.526;2023-11-22T09:47:55;16.00;77.70
40538;DHT22;27925;41.874;12.526;2023-11-22T09:50:40;16.20;77.30
40538;DHT22;27925;41.874;12.526;2023-11-22T09:53:34;16.50;76.50
40538;DHT22;27925;41.874;12.526;2023-11-22T09:56:03;16.80;75.80
40538;DHT22;27925;41.874;12.526;2023-11-22T09:58:33;16.90;75.00
40538;DHT22;27925;41.874;12.526;2023-11-22T10:01:02;17.00;74.80
40538;DHT22;27925;41.874;12.526;2023-11-22T10:03:28;17.30;74.40
40538;DHT22;27925;41.874;12.526;2023-11-22T10:05:56;17.40;73.60
40538;DHT22;27925;41.874;12.526;2023-11-22T10:08:23;17.40;73.40
40538;DHT22;27925;41.874;12.526;2023-11-22T10:10:49;17.40;73.20
40538;DHT22;27925;41.874;12.526;2023-11-22T10:13:20;17.50;73.40
40538;DHT22;27925;41.874;12.526;2023-11-22T10:15:49;17.50;73.00
40538;DHT22;27925;41.874;12.526;2023-11-22T10:18:15;17.40;72.40
40538;DHT22;27925;41.874;12.526;2023-11-22T10:20:43;17.30;71.80
40538;DHT22;27925;41.874;12.526;2023-11-22T10:23:17;17.30;72.00
40538;DHT22;27925;41.874;12.526;2023-11-22T10:25:52;17.40;72.30
40538;DHT22;27925;41.874;12.526;2023-11-22T10:28:19;17.40;71.60
40538;DHT22;27925;41.874;12.526;2023-11-22T10:30:49;17.50;71.40
40538;DHT22;27925;41.874;12.526;2023-11-22T10:33:17;17.60;72.00
40538;DHT22;27925;41.874;12.526;2023-11-22T10:35:47;17.60;71.20
40538;DHT22;27925;41.874;12.526;2023-11-22T10:38:20;17.60;70.40
40538;DHT22;27925;41.874;12.526;2023-11-22T10:40:47;17.50;70.40
40538;DHT22;27925;41.874;12.526;2023-11-22T10:43:15;17.40;70.90
40538;DHT22;27925;41.874;12.526;2023-11-22T10:45:43;17.30;71.10
40538;DHT22;27925;41.874;12.526;2023-11-22T10:48:17;17.30;70.70
40538;DHT22;27925;41.874;12.526;2023-11-22T10:50:44;17.20;70.40
40538;DHT22;27925;41.874;12.526;2023-11-22T10:53:12;17.30;70.50
40538;DHT22;27925;41.874;12.526;2023-11-22T10:55:48;17.50;70.30
40538;DHT22;27925;41.874;12.526;2023-11-22T10:58:15;17.60;70.10
40538;DHT22;27925;41.874;12.526;2023-11-22T11:00:41;17.70;69.80
40538;DHT22;27925;41.874;12.526;2023-11-22T11:03:13;17.80;69.70
40538;DHT22;27925;41.874;12.526;2023-11-22T11:05:52;17.80;68.80
40538;DHT22;27925;41.874;12.526;2023-11-22T11:08:20;17.80;69.30
40538;DHT22;27925;41.874;12.526;2023-11-22T11:10:48;17.80;68.80
40538;DHT22;27925;41.874;12.526;2023-11-22T11:13:17;17.80;68.80
40538;DHT22;27925;41.874;12.526;2023-11-22T11:15:44;17.90;68.60
40538;DHT22;27925;41.874;12.526;2023-11-22T11:18:13;17.90;68.10
40538;DHT22;27925;41.874;12.526;2023-11-22T11:20:46;18.00;68.10
40538;DHT22;27925;41.874;12.526;2023-11-22T11:23:14;17.80;67.70
40538;DHT22;27925;41.874;12.526;2023-11-22T11:25:41;17.70;68.00
40538;DHT22;27925;41.874;12.526;2023-11-22T11:28:10;17.60;68.20
40538;DHT22;27925;41.874;12.526;2023-11-22T11:30:44;17.50;68.50
40538;DHT22;27925;41.874;12.526;2023-11-22T11:33:11;17.40;68.20
40538;DHT22;27925;41.874;12.526;2023-11-22T11:35:57;17.30;68.60
40538;DHT22;27925;41.874;12.526;2023-11-22T11:38:30;17.30;69.20
40538;DHT22;27925;41.874;12.526;2023-11-22T11:40:56;17.50;68.90
40538;DHT22;27925;41.874;12.526;2023-11-22T11:43:41;17.50;68.80
40538;DHT22;27925;41.874;12.526;2023-11-22T11:46:12;17.50;68.80
40538;DHT22;27925;41.874;12.526;2023-11-22T11:48:43;17.60;68.00
40538;DHT22;27925;41.874;12.526;2023-11-22T11:51:09;17.70;68.00
40538;DHT22;27925;41.874;12.526;2023-11-22T11:53:35;17.80;68.10
40538;DHT22;27925;41.874;12.526;2023-11-22T11:56:01;17.90;67.90
40538;DHT22;27925;41.874;12.526;2023-11-22T11:58:27;18.00;67.70
40538;DHT22;27925;41.874;12.526;2023-11-22T12:00:54;18.10;67.70
40538;DHT22;27925;41.874;12.526;2023-11-22T12:03:20;18.20;67.30
40538;DHT22;27925;41.874;12.526;2023-11-22T12:05:47;18.30;67.20
40538;DHT22;27925;41.874;12.526;2023-11-22T12:08:16;18.40;67.10
40538;DHT22;27925;41.874;12.526;2023-11-22T12:10:46;18.50;66.70
40538;DHT22;27925;41.874;12.526;2023-11-22T12:13:18;18.50;66.50
40538;DHT22;27925;41.874;12.526;2023-11-22T12:15:49;18.50;66.10
40538;DHT22;27925;41.874;12.526;2023-11-22T12:18:15;18.50;65.60
40538;DHT22;27925;41.874;12.526;2023-11-22T12:20:41;18.40;65.20
40538;DHT22;27925;41.874;12.526;2023-11-22T12:23:08;18.40;65.50
40538;DHT22;27925;41.874;12.526;2023-11-22T12:25:35;18.50;65.40
40538;DHT22;27925;41.874;12.526;2023-11-22T12:28:01;18.60;65.80
40538;DHT22;27925;41.874;12.526;2023-11-22T12:30:34;18.50;65.30
40538;DHT22;27925;41.874;12.526;2023-11-22T12:33:08;18.50;66.10
40538;DHT22;27925;41.874;12.526;2023-11-22T12:35:35;18.50;65.70
40538;DHT22;27925;41.874;12.526;2023-11-22T12:38:02;18.50;65.40
40538;DHT22;27925;41.874;12.526;2023-11-22T12:40:31;18.50;65.10
40538;DHT22;27925;41.874;12.526;2023-11-22T12:42:58;18.50;65.40
40538;DHT22;27925;41.874;12.526;2023-11-22T12:45:26;18.60;65.10
40538;DHT22;27925;41.874;12.526;2023-11-22T12:47:57;18.70;65.00
40538;DHT22;27925;41.874;12.526;2023-11-22T12:50:43;18.70;64.20
40538;DHT22;27925;41.874;12.526;2023-11-22T12:53:13;18.80;64.10
40538;DHT22;27925;41.874;12.526;2023-11-22T12:55:47;18.80;64.20
40538;DHT22;27925;41.874;12.526;2023-11-22T12:58:18;18.90;63.90
40538;DHT22;27925;41.874;12.526;2023-11-22T13:00:45;18.80;63.30
40538;DHT22;27925;41.874;12.526;2023-11-22T13:23:38;18.70;63.20
40538;DHT22;27925;41.874;12.526;2023-11-22T13:26:04;18.80;61.10
40538;DHT22;27925;41.874;12.526;2023-11-22T13:28:31;18.70;61.90
40538;DHT22;27925;41.874;12.526;2023-11-22T13:30:56;18.60;62.50
40538;DHT22;27925;41.874;12.526;2023-11-22T13:33:22;18.60;62.40
40538;DHT22;27925;41.874;12.526;2023-11-22T13:35:48;18.60;62.30
40538;DHT22;27925;41.874;12.526;2023-11-22T13:38:14;18.50;62.20
40538;DHT22;27925;41.874;12.526;2023-11-22T13:40:41;18.40;62.20
40538;DHT22;27925;41.874;12.526;2023-11-22T13:43:11;18.30;61.80
40538;DHT22;27925;41.874;12.526;2023-11-22T13:45:38;18.30;61.70
40538;DHT22;27925;41.874;12.526;2023-11-22T13:48:07;18.30;61.70
40538;DHT22;27925;41.874;12.526;2023-11-22T13:50:35;18.20;61.40
40538;DHT22;27925;41.874;12.526;2023-11-22T13:53:02;18.20;61.80
40538;DHT22;27925;41.874;12.526;2023-11-22T13:55:29;18.20;61.90
40538;DHT22;27925;41.874;12.526;2023-11-22T13:57:57;18.30;61.80
40538;DHT22;27925;41.874;12.526;2023-11-22T14:00:27;18.40;61.60
40538;DHT22;27925;41.874;12.526;2023-11-22T14:02:58;18.50;61.50
40538;DHT22;27925;41.874;12.526;2023-11-22T14:05:29;18.50;61.30
40538;DHT22;27925;41.874;12.526;2023-11-22T14:07:55;18.60;61.50
40538;DHT22;27925;41.874;12.526;2023-11-22T14:10:21;18.60;61.40
40538;DHT22;27925;41.874;12.526;2023-11-22T14:12:49;18.60;60.90
40538;DHT22;27925;41.874;12.526;2023-11-22T14:15:15;18.70;61.80
40538;DHT22;27925;41.874;12.526;2023-11-22T14:17:41;18.70;61.70
40538;DHT22;27925;41.874;12.526;2023-11-22T14:20:09;18.50;60.70
40538;DHT22;27925;41.874;12.526;2023-11-22T14:22:35;18.40;61.40
40538;DHT22;27925;41.874;12.526;2023-11-22T14:25:01;18.40;61.50
40538;DHT22;27925;41.874;12.526;2023-11-22T14:27:28;18.30;61.70
40538;DHT22;27925;41.874;12.526;2023-11-22T14:29:56;18.20;61.60
40538;DHT22;27925;41.874;12.526;2023-11-22T14:32:22;18.10;61.70
40538;DHT22;27925;41.874;12.526;2023-11-22T14:34:48;18.00;61.90
40538;DHT22;27925;41.874;12.526;2023-11-22T14:37:14;18.00;62.20
40538;DHT22;27925;41.874;12.526;2023-11-22T14:39:41;17.90;62.80
40538;DHT22;27925;41.874;12.526;2023-11-22T14:42:07;17.80;62.50
40538;DHT22;27925;41.874;12.526;2023-11-22T14:44:34;17.60;62.70
40538;DHT22;27925;41.874;12.526;2023-11-22T14:47:00;17.50;62.90
40538;DHT22;27925;41.874;12.526;2023-11-22T14:49:38;17.40;62.70
40538;DHT22;27925;41.874;12.526;2023-11-22T14:52:04;17.40;62.90
40538;DHT22;27925;41.874;12.526;2023-11-22T14:54:30;17.30;63.00
40538;DHT22;27925;41.874;12.526;2023-11-22T14:56:55;17.30;62.80
40538;DHT22;27925;41.874;12.526;2023-11-22T14:59:25;17.20;62.90
40538;DHT22;27925;41.874;12.526;2023-11-22T15:01:51;17.20;63.10
40538;DHT22;27925;41.874;12.526;2023-11-22T15:04:17;17.20;62.80
40538;DHT22;27925;41.874;12.526;2023-11-22T15:06:44;17.20;62.90
40538;DHT22;27925;41.874;12.526;2023-11-22T15:09:10;17.10;63.00
40538;DHT22;27925;41.874;12.526;2023-11-22T15:11:41;17.10;62.90
40538;DHT22;27925;41.874;12.526;2023-11-22T15:14:06;17.10;63.20
40538;DHT22;27925;41.874;12.526;2023-11-22T15:16:33;17.00;63.10
40538;DHT22;27925;41.874;12.526;2023-11-22T15:18:59;17.00;63.40
40538;DHT22;27925;41.874;12.526;2023-11-22T15:21:27;17.00;63.50
40538;DHT22;27925;41.874;12.526;2023-11-22T15:23:52;16.90;63.50
40538;DHT22;27925;41.874;12.526;2023-11-22T15:26:20;16.90;63.50
40538;DHT22;27925;41.874;12.526;2023-11-22T15:28:47;16.90;63.80
40538;DHT22;27925;41.874;12.526;2023-11-22T15:31:16;16.80;63.80
40538;DHT22;27925;41.874;12.526;2023-11-22T15:33:42;16.70;63.80
40538;DHT22;27925;41.874;12.526;2023-11-22T15:36:08;16.70;64.00